Terminal Aerodrome Forecast
Issued by NWS

Home | Current Version | Previous Version | Graphics & Text | Print | Product List | Glossary On
Versions: 1 2 3 4 5 6 7 8 9 10 11 12 13
539
FTUS43 KBIS 301131
TAFJMS
TAF
KJMS 301131Z 3012/0112 06010KT P6SM FEW250
     FM301500 05017G25KT P6SM SCT050 SCT250
     FM010200 04010KT P6SM FEW250
     FM010800 36006KT P6SM SKC=

USA.gov is the U.S. government's official web portal to all federal, state and local government web resources and services.